Qiryat Bialik, Israel
Current Conditions -  °F | °C
As of 6:50 PM on Friday 24 Oct 2014 (Local Time) from LLHA Reporting Station
Clear Clear  
Wind Chill: 75°   Ceiling: Unl
Heat Index: 75°   Visibility: 6mi
Dew Point: 59°   Wind: 9mph
Humidity: 57%   Direction: 350°N
Pressure: 30"   Gusts: NA
Location:  32.83°N, 35.08°E
Report Text: LLHA 241550Z 35008KT CAVOK 24/15 Q1016
Loading
Personal Weather Stations






























Interactive Weather Map
Tropical Storm Tracking
New forecast layout! Learn more

10-Day Weather Forecast

Advertisements
Track Severe Weather on mobile